Time;durP1;ratioP1;P1;durP2;ratioP2;P2;SDS_P1;SDS_P2;PMS_P1;PMS_P2;Temp;Humidity;BMP_temperature;BMP_pressure;BME280_temperature;BME280_humidity;BME280_pressure;Samples;Min_cycle;Max_cycle;Signal;HPM_P1;HPM_P2
2021/01/18 00:00:35;;;;;;;36.45;16.08;;;-6.50;99.90;;;;;;4174862;28;20029;-60
2021/01/18 00:02:37;;;;;;;41.65;17.10;;;-6.50;99.90;;;;;;4174399;28;20091;-60
2021/01/18 00:04:38;;;;;;;37.33;15.75;;;-6.50;99.90;;;;;;4174958;28;20033;-61
2021/01/18 00:06:40;;;;;;;46.95;17.88;;;-6.40;99.90;;;;;;4175103;28;20013;-62
2021/01/18 00:08:42;;;;;;;45.15;17.45;;;-6.40;99.90;;;;;;4174978;28;20086;-62
2021/01/18 00:10:44;;;;;;;45.25;18.00;;;-6.40;99.90;;;;;;4175247;28;20766;-64
2021/01/18 00:12:49;;;;;;;45.45;17.58;;;-6.50;99.90;;;;;;4174725;28;20045;-63
2021/01/18 00:14:50;;;;;;;40.40;18.75;;;-6.50;99.90;;;;;;4174652;28;20440;-62
2021/01/18 00:16:52;;;;;;;47.38;19.50;;;-6.50;99.90;;;;;;4174882;28;20041;-65
2021/01/18 00:18:53;;;;;;;50.15;19.98;;;-6.50;99.90;;;;;;4175080;28;20094;-61
2021/01/18 00:20:54;;;;;;;45.03;19.95;;;-6.50;99.90;;;;;;4173073;28;20033;-62
2021/01/18 00:22:55;;;;;;;51.10;19.33;;;-6.60;99.90;;;;;;4174906;28;20041;-62
2021/01/18 00:24:56;;;;;;;64.35;24.50;;;-6.60;99.90;;;;;;4174075;28;20098;-62
2021/01/18 00:26:58;;;;;;;78.13;28.90;;;-6.60;99.90;;;;;;4174665;28;20462;-62
2021/01/18 00:28:59;;;;;;;75.32;28.75;;;-6.50;99.90;;;;;;4174146;28;20033;-68
2021/01/18 00:31:04;;;;;;;77.35;27.88;;;-6.50;99.90;;;;;;4174322;28;20577;-62
2021/01/18 00:33:05;;;;;;;54.85;21.92;;;-6.50;99.90;;;;;;4174336;28;20025;-61
2021/01/18 00:35:15;;;;;;;39.75;17.40;;;-6.50;99.90;;;;;;4174471;28;20866;-64
2021/01/18 00:37:16;;;;;;;40.67;17.95;;;-6.40;99.90;;;;;;4174350;28;20036;-66
2021/01/18 00:39:17;;;;;;;40.55;17.77;;;-6.50;99.90;;;;;;4174466;28;20083;-62
2021/01/18 00:41:19;;;;;;;44.53;18.25;;;-6.50;99.90;;;;;;4174792;28;20037;-61
2021/01/18 00:43:20;;;;;;;41.20;18.67;;;-6.50;99.90;;;;;;4188020;28;20510;-60
2021/01/18 00:45:23;;;;;;;50.22;18.00;;;-6.50;99.90;;;;;;4190768;28;20054;-61
2021/01/18 00:47:24;;;;;;;42.63;18.65;;;-6.50;99.90;;;;;;4190161;28;20026;-63
2021/01/18 00:49:25;;;;;;;52.28;20.35;;;-6.50;99.90;;;;;;4174584;28;20033;-64
2021/01/18 00:51:35;;;;;;;47.10;19.65;;;-6.40;99.90;;;;;;4174326;28;20044;-61
2021/01/18 00:53:36;;;;;;;42.92;16.92;;;-6.40;99.90;;;;;;4174717;28;20476;-63
2021/01/18 00:55:38;;;;;;;50.22;20.45;;;-6.40;99.90;;;;;;4173684;28;20102;-62
2021/01/18 00:57:39;;;;;;;41.25;16.23;;;-6.40;99.90;;;;;;4174314;28;20026;-62
2021/01/18 00:59:40;;;;;;;34.10;15.32;;;-6.30;99.90;;;;;;4171999;28;20033;-63
2021/01/18 01:01:42;;;;;;;45.60;18.58;;;-6.30;99.90;;;;;;4175279;28;20209;-59
2021/01/18 01:03:43;;;;;;;44.97;17.63;;;-6.30;99.90;;;;;;4173336;28;20037;-63
2021/01/18 01:05:44;;;;;;;44.55;18.13;;;-6.30;99.90;;;;;;4173102;28;20159;-61
2021/01/18 01:07:48;;;;;;;36.42;16.08;;;-6.20;99.90;;;;;;4173493;28;20122;-62
2021/01/18 01:09:49;;;;;;;34.88;15.20;;;-6.20;99.90;;;;;;4180162;28;20066;-61
2021/01/18 01:11:50;;;;;;;39.72;15.93;;;-6.20;99.90;;;;;;4190730;28;20036;-62
2021/01/18 01:13:52;;;;;;;42.47;18.17;;;-6.20;99.90;;;;;;4186957;28;20095;-65
2021/01/18 01:15:53;;;;;;;37.97;15.88;;;-6.20;99.90;;;;;;4172177;28;20094;-63
2021/01/18 01:17:55;;;;;;;43.80;17.10;;;-6.20;99.90;;;;;;4173697;28;20029;-64
2021/01/18 01:19:56;;;;;;;33.45;15.07;;;-6.20;99.90;;;;;;4173823;28;20453;-63
2021/01/18 01:21:57;;;;;;;32.83;14.70;;;-6.20;99.90;;;;;;4173642;28;20033;-64
2021/01/18 01:23:58;;;;;;;34.13;15.15;;;-6.20;99.90;;;;;;4173532;28;20550;-62
2021/01/18 01:25:59;;;;;;;40.70;16.15;;;-6.20;99.90;;;;;;4173370;28;20032;-62
2021/01/18 01:28:01;;;;;;;38.67;16.08;;;-6.30;99.90;;;;;;4173672;28;20094;-62
2021/01/18 01:30:10;;;;;;;35.67;15.15;;;-6.20;99.90;;;;;;4173442;28;20075;-59
2021/01/18 01:32:11;;;;;;;36.25;15.25;;;-6.20;99.90;;;;;;4173474;28;20526;-57
2021/01/18 01:34:12;;;;;;;37.28;15.38;;;-6.20;99.90;;;;;;4171940;28;20098;-59
2021/01/18 01:36:13;;;;;;;37.10;15.30;;;-6.20;99.90;;;;;;4173363;28;20083;-60
2021/01/18 01:38:15;;;;;;;42.05;16.70;;;-6.20;99.90;;;;;;4174305;28;20041;-62
2021/01/18 01:40:17;;;;;;;34.00;14.70;;;-6.20;99.90;;;;;;4174230;28;20063;-62
2021/01/18 01:42:23;;;;;;;29.20;13.98;;;-6.20;99.90;;;;;;4173387;28;20051;-64
2021/01/18 01:44:24;;;;;;;34.20;15.15;;;-6.20;99.90;;;;;;4173330;28;20049;-62
2021/01/18 01:46:25;;;;;;;33.42;14.98;;;-6.30;99.90;;;;;;4173238;28;20143;-61
2021/01/18 01:48:26;;;;;;;38.08;15.15;;;-6.30;99.90;;;;;;4173652;28;20107;-61
2021/01/18 01:50:34;;;;;;;31.50;14.43;;;-6.30;99.90;;;;;;4173149;28;20078;-62
2021/01/18 01:52:45;;;;;;;38.17;16.35;;;-6.30;99.90;;;;;;4173302;28;20114;-61
2021/01/18 01:54:51;;;;;;;34.38;14.40;;;-6.30;99.90;;;;;;4173275;28;20139;-62
2021/01/18 01:56:54;;;;;;;33.03;13.75;;;-6.30;99.90;;;;;;4184805;28;20094;-63
2021/01/18 01:58:56;;;;;;;32.03;13.77;;;-6.30;99.90;;;;;;4190073;28;20025;-62
2021/01/18 02:00:58;;;;;;;36.13;14.93;;;-6.30;99.90;;;;;;4189580;28;20092;-62
2021/01/18 02:02:59;;;;;;;37.13;15.18;;;-6.30;99.90;;;;;;4189625;28;20074;-62
2021/01/18 02:05:12;;;;;;;41.67;16.10;;;-6.30;99.90;;;;;;4176296;28;20554;-63
2021/01/18 02:07:29;;;;;;;77.90;27.98;;;-6.30;99.90;;;;;;4172723;28;20036;-63
2021/01/18 02:09:30;;;;;;;62.08;22.30;;;-6.30;99.90;;;;;;4171287;28;20032;-62
2021/01/18 02:11:31;;;;;;;43.78;17.45;;;-6.30;99.90;;;;;;4173322;28;20033;-62
2021/01/18 02:13:58;;;;;;;48.95;16.23;;;-6.30;99.90;;;;;;4172568;28;20126;-63
2021/01/18 02:15:59;;;;;;;61.90;22.42;;;-6.30;99.90;;;;;;4165243;28;20110;-60
2021/01/18 02:18:20;;;;;;;65.28;23.17;;;-6.30;99.90;;;;;;4172607;28;20078;-62
2021/01/18 02:20:40;;;;;;;42.28;17.15;;;-6.30;99.90;;;;;;4172675;28;20025;-63
2021/01/18 02:23:13;;;;;;;60.33;20.42;;;-6.30;99.90;;;;;;4173238;28;20029;-63
2021/01/18 02:25:27;;;;;;;45.25;17.67;;;-6.30;99.90;;;;;;4172588;28;20130;-61
2021/01/18 02:28:05;;;;;;;35.95;14.98;;;-6.20;99.90;;;;;;4170607;28;20409;-61
2021/01/18 02:30:57;;;;;;;34.28;12.63;;;-6.20;99.90;;;;;;4172615;28;20025;-61
2021/01/18 02:33:36;;;;;;;40.13;13.30;;;-6.20;99.90;;;;;;4146969;28;20171;-58
2021/01/18 02:36:13;;;;;;;32.47;12.85;;;-6.20;99.90;;;;;;4172396;28;20029;-64
2021/01/18 02:38:26;;;;;;;30.55;12.25;;;-6.20;99.90;;;;;;4172495;28;20028;-62
2021/01/18 02:41:03;;;;;;;32.40;14.43;;;-6.20;99.90;;;;;;4172609;28;20412;-66
2021/01/18 02:43:07;;;;;;;33.35;13.25;;;-6.20;99.90;;;;;;4172220;28;20029;-62
2021/01/18 02:45:11;;;;;;;34.58;14.35;;;-6.20;99.90;;;;;;4172752;28;20559;-57
2021/01/18 02:47:14;;;;;;;34.08;14.77;;;-6.20;99.90;;;;;;4172097;28;20029;-63
2021/01/18 02:49:19;;;;;;;26.48;11.63;;;-6.20;99.90;;;;;;4172367;28;20033;-62
2021/01/18 02:51:23;;;;;;;31.42;12.40;;;-6.30;99.90;;;;;;4172154;28;20551;-61
2021/01/18 02:53:24;;;;;;;34.88;14.38;;;-6.30;99.90;;;;;;4172351;28;20110;-67
2021/01/18 02:55:25;;;;;;;38.97;15.35;;;-6.30;99.90;;;;;;4188375;28;20098;-64
2021/01/18 02:57:28;;;;;;;60.85;23.08;;;-6.30;99.90;;;;;;4188965;28;20036;-62
2021/01/18 02:59:29;;;;;;;48.97;16.88;;;-6.30;99.90;;;;;;4188775;28;20090;-60
2021/01/18 03:02:07;;;;;;;41.22;14.65;;;-6.20;99.90;;;;;;4188595;28;20146;-62
2021/01/18 03:04:29;;;;;;;49.28;16.85;;;-6.20;99.90;;;;;;4188720;28;20489;-61
2021/01/18 03:06:49;;;;;;;49.70;17.48;;;-6.20;99.90;;;;;;4187079;28;20029;-62
2021/01/18 03:08:58;;;;;;;49.95;17.98;;;-6.20;99.90;;;;;;4188108;28;20078;-66
2021/01/18 03:11:14;;;;;;;44.85;14.55;;;-6.20;99.90;;;;;;4188709;28;20101;-62
2021/01/18 03:13:21;;;;;;;46.85;15.38;;;-6.20;99.90;;;;;;4183993;28;20025;-63
2021/01/18 03:15:26;;;;;;;55.25;19.45;;;-6.20;99.90;;;;;;4172199;28;20083;-61
2021/01/18 03:17:29;;;;;;;55.75;18.38;;;-6.20;99.90;;;;;;4173120;28;20493;-62
2021/01/18 03:19:44;;;;;;;53.92;18.00;;;-6.20;99.90;;;;;;4172588;28;20778;-66
2021/01/18 03:21:46;;;;;;;44.70;16.10;;;-6.20;99.90;;;;;;4171941;28;20029;-62
2021/01/18 03:23:48;;;;;;;66.53;19.02;;;-6.20;99.90;;;;;;4172308;28;20095;-62
2021/01/18 03:25:54;;;;;;;36.40;13.82;;;-6.20;99.90;;;;;;4171951;28;20485;-62
2021/01/18 03:27:57;;;;;;;43.75;15.85;;;-6.10;99.90;;;;;;4171525;28;20021;-63
2021/01/18 03:29:58;;;;;;;33.75;13.63;;;-6.20;99.90;;;;;;4172512;28;20091;-61
2021/01/18 03:31:59;;;;;;;35.22;13.30;;;-6.20;99.90;;;;;;4175157;28;20110;-61
2021/01/18 03:34:01;;;;;;;39.72;14.25;;;-6.20;99.90;;;;;;4175180;28;20037;-62
2021/01/18 03:36:03;;;;;;;47.03;17.05;;;-6.20;99.90;;;;;;4175280;28;20658;-61
2021/01/18 03:38:04;;;;;;;33.60;11.73;;;-6.20;99.90;;;;;;4175464;28;20029;-60
2021/01/18 03:40:06;;;;;;;48.70;17.15;;;-6.20;99.90;;;;;;4175095;28;20526;-62
2021/01/18 03:42:11;;;;;;;37.72;14.77;;;-6.20;99.90;;;;;;4175681;28;20451;-60
2021/01/18 03:44:12;;;;;;;33.30;12.85;;;-6.20;99.90;;;;;;4174829;28;20049;-59
2021/01/18 03:46:14;;;;;;;24.98;11.10;;;-6.20;99.90;;;;;;4175196;28;20029;-62
2021/01/18 03:48:15;;;;;;;31.58;12.35;;;-6.20;99.90;;;;;;4175600;28;20037;-62
2021/01/18 03:50:17;;;;;;;35.80;13.57;;;-6.20;99.90;;;;;;4174666;28;20041;-62
2021/01/18 03:52:18;;;;;;;44.67;17.20;;;-6.20;99.90;;;;;;4174591;28;20025;-60
2021/01/18 03:54:19;;;;;;;40.00;14.88;;;-6.30;99.90;;;;;;4175067;28;20551;-59
2021/01/18 03:56:20;;;;;;;46.75;14.35;;;-6.30;99.90;;;;;;4174579;28;20024;-61
2021/01/18 03:58:22;;;;;;;37.10;12.45;;;-6.20;99.90;;;;;;4174956;28;20606;-59
2021/01/18 04:00:28;;;;;;;32.80;12.95;;;-6.30;99.90;;;;;;4174676;28;20066;-59
2021/01/18 04:02:29;;;;;;;33.20;12.10;;;-6.30;99.90;;;;;;4174986;28;20043;-58
2021/01/18 04:04:31;;;;;;;40.58;14.57;;;-6.30;99.90;;;;;;4175160;28;20033;-63
2021/01/18 04:06:37;;;;;;;32.08;11.77;;;-6.30;99.90;;;;;;4175287;28;20420;-58
2021/01/18 04:08:38;;;;;;;26.75;10.50;;;-6.30;99.90;;;;;;4191156;28;20125;-58
2021/01/18 04:10:39;;;;;;;37.75;14.45;;;-6.30;99.90;;;;;;4191757;28;20155;-61
2021/01/18 04:12:45;;;;;;;47.00;15.05;;;-6.30;99.90;;;;;;4191117;28;20037;-60
2021/01/18 04:14:46;;;;;;;53.47;16.92;;;-6.30;99.90;;;;;;4189396;28;20040;-53
2021/01/18 04:16:47;;;;;;;31.98;11.98;;;-6.20;99.90;;;;;;4191748;28;20025;-58
2021/01/18 04:18:49;;;;;;;25.98;10.23;;;-6.20;99.90;;;;;;4191303;28;20028;-62
2021/01/18 04:20:50;;;;;;;31.48;12.27;;;-6.20;99.90;;;;;;4191719;28;20024;-60
2021/01/18 04:22:53;;;;;;;28.67;11.30;;;-6.20;99.90;;;;;;4190459;28;20033;-58
2021/01/18 04:24:54;;;;;;;31.42;12.27;;;-6.20;99.90;;;;;;4191295;28;20485;-59
2021/01/18 04:26:55;;;;;;;28.13;11.68;;;-6.20;99.90;;;;;;4190873;28;20029;-60
2021/01/18 04:28:56;;;;;;;23.50;9.45;;;-6.20;99.90;;;;;;4191261;28;20054;-59
2021/01/18 04:30:58;;;;;;;31.25;10.50;;;-6.20;99.90;;;;;;4189795;28;20102;-56
2021/01/18 04:33:03;;;;;;;23.00;9.52;;;-6.20;99.90;;;;;;4190844;28;20049;-61
2021/01/18 04:35:06;;;;;;;28.80;10.73;;;-6.20;99.90;;;;;;4175238;28;20194;-65
2021/01/18 04:37:07;;;;;;;24.75;10.60;;;-6.30;99.90;;;;;;4174890;28;20033;-61
2021/01/18 04:39:10;;;;;;;23.45;10.50;;;-6.30;99.90;;;;;;4174434;28;20041;-61
2021/01/18 04:41:11;;;;;;;23.55;9.88;;;-6.20;99.90;;;;;;4174668;28;20468;-64
2021/01/18 04:43:16;;;;;;;15.75;8.00;;;-6.20;99.90;;;;;;4173862;28;20045;-58
2021/01/18 04:45:19;;;;;;;19.48;8.95;;;-6.20;99.90;;;;;;4172574;28;20106;-62
2021/01/18 04:47:26;;;;;;;19.98;7.85;;;-6.20;99.90;;;;;;4174245;28;20033;-63
2021/01/18 04:49:28;;;;;;;20.38;8.52;;;-6.20;99.90;;;;;;4175079;28;20071;-57
2021/01/18 04:51:39;;;;;;;16.23;8.23;;;-6.20;99.90;;;;;;4184290;28;20041;-61
2021/01/18 04:53:53;;;;;;;20.95;9.50;;;-6.20;99.90;;;;;;4188818;28;20028;-63
2021/01/18 04:56:15;;;;;;;17.63;7.95;;;-6.20;99.90;;;;;;4190481;28;20036;-61
2021/01/18 04:58:18;;;;;;;20.83;8.55;;;-6.20;99.90;;;;;;4190055;28;20090;-64
2021/01/18 05:00:28;;;;;;;17.77;8.07;;;-6.20;99.90;;;;;;4186826;28;20079;-59
2021/01/18 05:02:46;;;;;;;14.38;7.00;;;-6.20;99.90;;;;;;4187443;28;20050;-60
2021/01/18 05:04:49;;;;;;;19.58;8.80;;;-6.20;99.90;;;;;;4189719;28;20040;-62
2021/01/18 05:06:58;;;;;;;25.85;11.13;;;-6.20;99.90;;;;;;4190339;28;20469;-62
2021/01/18 05:09:08;;;;;;;20.08;10.02;;;-6.10;99.90;;;;;;4188473;28;20516;-61
2021/01/18 05:11:15;;;;;;;21.40;9.05;;;-6.20;99.90;;;;;;4190582;28;20032;-63
2021/01/18 05:13:19;;;;;;;20.42;8.48;;;-6.10;99.90;;;;;;4189996;28;20078;-62
2021/01/18 05:15:20;;;;;;;17.45;6.65;;;-6.10;99.90;;;;;;4188221;28;20078;-63
2021/01/18 05:17:40;;;;;;;18.55;7.85;;;-6.10;99.90;;;;;;4173839;28;20110;-59
2021/01/18 05:19:44;;;;;;;19.65;7.53;;;-6.10;99.90;;;;;;4173156;28;20483;-62
2021/01/18 05:21:46;;;;;;;17.52;6.97;;;-6.10;99.90;;;;;;4173316;28;20083;-62
2021/01/18 05:23:47;;;;;;;12.20;5.85;;;-6.00;99.90;;;;;;4172712;28;20020;-62
2021/01/18 05:25:49;;;;;;;17.55;7.53;;;-6.00;99.90;;;;;;4173620;28;20090;-62
2021/01/18 05:28:09;;;;;;;16.17;7.30;;;-6.00;99.90;;;;;;4181717;28;20553;-62
2021/01/18 05:30:16;;;;;;;16.85;6.80;;;-6.00;99.90;;;;;;4189736;28;20546;-61
2021/01/18 05:32:21;;;;;;;14.68;6.43;;;-5.90;99.90;;;;;;4189782;28;20078;-63
2021/01/18 05:34:27;;;;;;;17.60;6.53;;;-5.90;99.90;;;;;;4190361;28;20044;-61
2021/01/18 05:36:47;;;;;;;15.10;7.15;;;-5.90;99.90;;;;;;4188829;28;20041;-64
2021/01/18 05:38:49;;;;;;;17.45;7.70;;;-5.80;99.90;;;;;;4190051;28;20086;-63
2021/01/18 05:40:51;;;;;;;17.52;7.47;;;-5.80;99.90;;;;;;4189718;28;20082;-64
2021/01/18 05:42:52;;;;;;;16.77;6.72;;;-5.90;99.90;;;;;;4189707;28;20036;-63
2021/01/18 05:44:55;;;;;;;16.80;6.60;;;-5.80;99.90;;;;;;4186396;28;20738;-65
2021/01/18 05:47:02;;;;;;;15.10;6.63;;;-5.90;99.90;;;;;;4172616;28;20436;-63
2021/01/18 05:49:21;;;;;;;15.88;7.50;;;-5.90;99.90;;;;;;4182777;28;20040;-67
2021/01/18 05:51:24;;;;;;;24.20;7.50;;;-5.90;99.90;;;;;;4187550;28;20041;-67
2021/01/18 05:53:32;;;;;;;20.10;6.97;;;-5.90;99.90;;;;;;4188312;28;20597;-67
2021/01/18 05:55:33;;;;;;;13.85;6.50;;;-5.90;99.90;;;;;;4189703;28;20435;-64
2021/01/18 05:57:35;;;;;;;15.93;6.38;;;-5.90;99.90;;;;;;4189397;28;20036;-67
2021/01/18 05:59:37;;;;;;;19.13;8.40;;;-5.90;99.90;;;;;;4189517;28;20029;-63
2021/01/18 06:01:42;;;;;;;25.67;9.80;;;-6.00;99.90;;;;;;4174135;28;20083;-62
2021/01/18 06:03:43;;;;;;;21.27;8.90;;;-5.90;99.90;;;;;;4173033;28;20021;-58
2021/01/18 06:05:49;;;;;;;15.40;7.43;;;-6.00;99.90;;;;;;4172701;28;20041;-55
2021/01/18 06:07:51;;;;;;;20.95;8.48;;;-6.00;99.90;;;;;;4173275;28;20542;-57
2021/01/18 06:09:52;;;;;;;24.88;8.70;;;-6.00;99.90;;;;;;4186773;28;20082;-56
2021/01/18 06:11:54;;;;;;;25.63;10.13;;;-6.00;99.90;;;;;;4189380;28;20036;-64
2021/01/18 06:14:03;;;;;;;24.10;10.27;;;-6.00;99.90;;;;;;4185613;28;20435;-63
2021/01/18 06:16:09;;;;;;;52.80;19.88;;;-6.00;99.90;;;;;;4178640;28;20087;-63
2021/01/18 06:18:14;;;;;;;36.03;13.82;;;-6.00;99.90;;;;;;4170530;28;20041;-62
2021/01/18 06:20:20;;;;;;;25.55;11.07;;;-6.00;99.90;;;;;;4170376;28;20115;-64
2021/01/18 06:22:29;;;;;;;21.10;9.00;;;-6.00;99.90;;;;;;4172534;28;20079;-64
2021/01/18 06:24:33;;;;;;;19.85;8.45;;;-6.00;99.90;;;;;;4172257;28;20041;-62
2021/01/18 06:26:36;;;;;;;17.25;8.13;;;-6.00;99.90;;;;;;4172544;28;20025;-62
2021/01/18 06:28:39;;;;;;;21.60;8.38;;;-6.00;99.90;;;;;;4169864;28;20841;-62
2021/01/18 06:30:40;;;;;;;19.52;10.15;;;-6.10;99.90;;;;;;4172139;28;20041;-63
2021/01/18 06:32:41;;;;;;;19.33;9.30;;;-6.00;99.90;;;;;;4172366;28;20135;-61
2021/01/18 06:34:42;;;;;;;21.35;10.13;;;-6.00;99.90;;;;;;4173388;28;20083;-63
2021/01/18 06:36:44;;;;;;;17.73;7.85;;;-6.00;99.90;;;;;;4172140;28;20934;-62
2021/01/18 06:39:01;;;;;;;21.98;8.65;;;-6.00;99.90;;;;;;4173411;28;20078;-63
2021/01/18 06:41:02;;;;;;;17.83;7.70;;;-6.00;99.90;;;;;;4171834;28;20025;-62
2021/01/18 06:43:05;;;;;;;17.45;7.53;;;-6.00;99.90;;;;;;4172553;28;20032;-62
2021/01/18 06:45:19;;;;;;;16.52;8.45;;;-6.00;99.90;;;;;;4171929;28;20063;-58
2021/01/18 06:47:32;;;;;;;20.45;8.98;;;-6.00;99.90;;;;;;4171425;28;20048;-64
2021/01/18 06:49:33;;;;;;;22.88;10.32;;;-6.00;99.90;;;;;;4171901;28;20037;-65
2021/01/18 06:51:40;;;;;;;22.73;10.40;;;-6.00;99.90;;;;;;4171855;28;20029;-61
2021/01/18 06:53:47;;;;;;;22.35;9.55;;;-6.00;99.90;;;;;;4170297;28;20086;-61
2021/01/18 06:56:06;;;;;;;19.80;8.43;;;-5.90;99.90;;;;;;4172030;28;20033;-58
2021/01/18 06:58:17;;;;;;;20.02;9.32;;;-5.90;99.90;;;;;;4171051;28;20448;-60
2021/01/18 07:00:19;;;;;;;24.77;11.80;;;-5.90;99.90;;;;;;4171777;28;20439;-64
2021/01/18 07:02:20;;;;;;;41.47;15.13;;;-5.90;99.90;;;;;;4171517;28;20025;-61
2021/01/18 07:04:32;;;;;;;33.83;14.18;;;-5.90;99.90;;;;;;4172893;28;20036;-64
2021/01/18 07:06:35;;;;;;;40.45;15.02;;;-5.90;99.90;;;;;;4174925;28;20431;-60
2021/01/18 07:08:40;;;;;;;62.60;25.13;;;-6.00;99.90;;;;;;4186541;28;20401;-61
2021/01/18 07:10:50;;;;;;;54.65;21.35;;;-5.90;99.90;;;;;;4187362;28;20096;-60
2021/01/18 07:12:52;;;;;;;65.25;25.67;;;-5.80;99.90;;;;;;4187646;28;20542;-61
2021/01/18 07:15:08;;;;;;;42.42;16.70;;;-5.80;99.90;;;;;;4187895;28;20040;-58
2021/01/18 07:17:12;;;;;;;34.08;13.80;;;-5.80;99.90;;;;;;4187755;28;20044;-61
2021/01/18 07:19:24;;;;;;;35.13;14.13;;;-5.80;99.90;;;;;;4185860;28;20041;-60
2021/01/18 07:21:29;;;;;;;37.20;14.80;;;-5.80;99.90;;;;;;4187952;28;20563;-62
2021/01/18 07:23:31;;;;;;;27.83;11.95;;;-5.80;99.90;;;;;;4187580;28;20032;-62
2021/01/18 07:25:37;;;;;;;28.67;12.20;;;-5.80;99.90;;;;;;4188059;28;20449;-64
2021/01/18 07:27:46;;;;;;;30.42;12.13;;;-5.80;99.90;;;;;;4186102;28;20080;-61
2021/01/18 07:29:47;;;;;;;35.88;14.93;;;-5.80;99.90;;;;;;4187847;28;20040;-61
2021/01/18 07:31:55;;;;;;;34.85;15.15;;;-5.80;99.90;;;;;;4179923;28;20053;-59
2021/01/18 07:33:57;;;;;;;32.67;14.55;;;-5.80;99.90;;;;;;4181272;28;20403;-64
2021/01/18 07:36:00;;;;;;;60.17;22.35;;;-5.70;99.90;;;;;;4169510;28;20098;-62
2021/01/18 07:38:14;;;;;;;85.93;33.25;;;-5.70;99.90;;;;;;4164563;28;20045;-58
2021/01/18 07:40:17;;;;;;;50.90;19.85;;;-5.60;99.90;;;;;;4172447;28;20897;-69
2021/01/18 07:42:27;;;;;;;44.95;17.85;;;-5.60;99.90;;;;;;4182858;28;20034;-66
2021/01/18 07:44:35;;;;;;;31.25;12.82;;;-5.60;99.90;;;;;;4184447;28;20556;-70
2021/01/18 07:46:36;;;;;;;36.85;16.90;;;-5.60;99.90;;;;;;4185773;28;20369;-63
2021/01/18 07:48:37;;;;;;;35.45;14.18;;;-5.50;99.90;;;;;;4179762;28;20033;-48
2021/01/18 07:50:41;;;;;;;44.83;17.50;;;-5.50;99.90;;;;;;4181925;28;20496;-48
2021/01/18 07:52:44;;;;;;;38.15;16.13;;;-5.40;99.90;;;;;;4188275;28;20082;-44
2021/01/18 07:54:48;;;;;;;34.47;15.30;;;-5.40;99.90;;;;;;4187726;28;20477;-48
2021/01/18 07:56:52;;;;;;;34.47;14.27;;;-5.30;99.90;;;;;;4188127;28;20489;-54
2021/01/18 07:58:58;;;;;;;44.05;18.58;;;-5.30;99.90;;;;;;4187811;28;20135;-60
2021/01/18 08:01:08;;;;;;;31.85;15.07;;;-5.30;99.90;;;;;;4188196;28;20133;-54
2021/01/18 08:03:12;;;;;;;19.60;10.65;;;-5.20;99.90;;;;;;4187849;28;20044;-54
2021/01/18 08:05:23;;;;;;;25.45;10.30;;;-5.20;99.90;;;;;;4186096;28;20042;-47
2021/01/18 08:07:24;;;;;;;19.67;10.65;;;-5.30;99.90;;;;;;4187834;28;20102;-50
2021/01/18 08:09:26;;;;;;;24.67;11.35;;;-5.30;99.90;;;;;;4188114;28;20033;-60
2021/01/18 08:11:27;;;;;;;51.10;23.05;;;-5.30;99.90;;;;;;4184406;28;20052;-49
2021/01/18 08:13:32;;;;;;;68.93;25.30;;;-5.40;99.90;;;;;;4186850;28;20430;-52
2021/01/18 08:15:34;;;;;;;35.00;12.48;;;-5.40;99.90;;;;;;4187662;28;20036;-53
2021/01/18 08:17:35;;;;;;;43.20;16.30;;;-5.50;99.90;;;;;;4189606;28;20068;-53
2021/01/18 08:19:37;;;;;;;44.22;16.58;;;-5.40;99.90;;;;;;4190726;28;20093;-53
2021/01/18 08:21:43;;;;;;;36.58;16.58;;;-5.30;99.90;;;;;;4191284;28;20165;-53
2021/01/18 08:23:44;;;;;;;53.30;23.88;;;-5.30;99.90;;;;;;4177604;28;20032;-55
2021/01/18 08:25:46;;;;;;;52.45;21.92;;;-5.20;99.90;;;;;;4183463;28;20094;-52
2021/01/18 08:27:54;;;;;;;34.88;15.00;;;-5.10;99.90;;;;;;4181187;28;20443;-53
2021/01/18 08:29:55;;;;;;;28.98;13.95;;;-5.10;99.90;;;;;;4190524;28;20495;-56
2021/01/18 08:32:25;;;;;;;29.67;14.80;;;-5.10;99.90;;;;;;4190650;28;20052;-54
2021/01/18 08:34:34;;;;;;;28.73;12.93;;;-5.10;99.90;;;;;;4190435;28;20105;-62
2021/01/18 08:36:37;;;;;;;30.02;13.00;;;-5.10;99.90;;;;;;4190958;28;20048;-51
2021/01/18 08:38:38;;;;;;;31.65;12.43;;;-5.10;99.90;;;;;;4190217;28;20522;-48
2021/01/18 08:40:44;;;;;;;33.67;14.73;;;-5.00;99.90;;;;;;4191103;28;20436;-47
2021/01/18 08:42:54;;;;;;;29.90;15.07;;;-5.00;99.90;;;;;;4189432;28;20089;-55
2021/01/18 08:45:00;;;;;;;28.08;13.38;;;-4.90;99.90;;;;;;4174359;28;20102;-47
2021/01/18 08:47:03;;;;;;;26.25;12.98;;;-4.90;99.90;;;;;;4174923;28;20441;-57
2021/01/18 08:49:32;;;;;;;31.63;15.02;;;-4.90;99.90;;;;;;4190982;28;20040;-50
2021/01/18 08:51:51;;;;;;;25.38;12.43;;;-4.90;99.90;;;;;;4190687;28;20361;-52
2021/01/18 08:53:53;;;;;;;36.38;15.90;;;-4.90;99.90;;;;;;4181944;28;20406;-53
2021/01/18 08:55:56;;;;;;;29.17;14.13;;;-4.90;99.90;;;;;;4182947;28;20009;-41
2021/01/18 08:58:02;;;;;;;23.95;11.35;;;-4.90;99.90;;;;;;4191242;28;20117;-46
2021/01/18 09:00:11;;;;;;;22.23;10.77;;;-4.80;99.90;;;;;;4188314;28;20964;-52
2021/01/18 09:02:19;;;;;;;22.88;10.38;;;-4.70;99.90;;;;;;4190621;28;20036;-58
2021/01/18 09:04:24;;;;;;;20.75;10.80;;;-4.70;99.90;;;;;;4190455;28;20040;-50
2021/01/18 09:06:29;;;;;;;22.58;9.88;;;-4.50;99.90;;;;;;4183058;28;20106;-59
2021/01/18 09:08:31;;;;;;;20.77;9.90;;;-4.50;99.90;;;;;;4187387;28;20028;-56
2021/01/18 09:10:35;;;;;;;22.55;10.57;;;-4.50;99.90;;;;;;4173330;28;20036;-52
2021/01/18 09:12:38;;;;;;;22.48;10.68;;;-4.50;99.90;;;;;;4171180;28;20036;-54
2021/01/18 09:14:39;;;;;;;24.13;12.05;;;-4.50;99.90;;;;;;4177135;28;20071;-53
2021/01/18 09:16:41;;;;;;;28.88;12.13;;;-4.40;99.90;;;;;;4184426;28;20086;-53
2021/01/18 09:18:43;;;;;;;27.77;12.70;;;-4.40;99.90;;;;;;4190331;28;20130;-60
2021/01/18 09:20:47;;;;;;;25.60;11.48;;;-4.30;99.90;;;;;;4189445;28;20296;-54
2021/01/18 09:22:48;;;;;;;23.52;10.98;;;-4.30;99.90;;;;;;4189583;28;20024;-54
2021/01/18 09:24:51;;;;;;;29.30;12.02;;;-4.20;99.90;;;;;;4189691;28;20024;-60
2021/01/18 09:26:53;;;;;;;25.67;10.93;;;-4.20;99.90;;;;;;4189619;28;20078;-56
2021/01/18 09:28:55;;;;;;;19.55;9.88;;;-4.10;99.90;;;;;;4187913;28;20032;-55
2021/01/18 09:31:05;;;;;;;24.83;10.45;;;-4.10;99.90;;;;;;4187620;28;20528;-52
2021/01/18 09:33:08;;;;;;;21.83;9.65;;;-4.00;99.90;;;;;;4189846;28;20070;-51
2021/01/18 09:35:12;;;;;;;32.40;13.07;;;-4.00;99.90;;;;;;4189714;28;20032;-50
2021/01/18 09:37:13;;;;;;;33.65;13.88;;;-4.00;99.90;;;;;;4189780;28;20025;-50
2021/01/18 09:39:20;;;;;;;34.72;15.18;;;-4.00;99.90;;;;;;4189075;28;20157;-59
2021/01/18 09:41:21;;;;;;;29.25;11.52;;;-3.90;99.90;;;;;;4188090;28;20041;-58
2021/01/18 09:43:22;;;;;;;21.85;9.70;;;-3.80;99.90;;;;;;4182064;28;20032;-60
2021/01/18 09:45:26;;;;;;;23.77;8.85;;;-3.90;99.90;;;;;;4196123;28;20040;-61
2021/01/18 09:47:30;;;;;;;22.58;8.80;;;-3.90;99.90;;;;;;4205953;28;20565;-58
2021/01/18 09:49:32;;;;;;;18.65;7.60;;;-4.00;99.90;;;;;;4188579;28;20087;-52
2021/01/18 09:51:33;;;;;;;18.98;8.43;;;-3.90;99.90;;;;;;4188798;28;20043;-53
2021/01/18 09:53:35;;;;;;;22.75;8.60;;;-3.80;99.90;;;;;;4188899;28;20036;-58
2021/01/18 09:55:59;;;;;;;26.17;8.55;;;-3.80;99.90;;;;;;4187775;28;20040;-58
2021/01/18 09:58:09;;;;;;;23.73;9.40;;;-3.80;99.90;;;;;;4190065;28;20028;-53
2021/01/18 10:00:11;;;;;;;19.30;8.48;;;-3.70;99.90;;;;;;4188497;28;20334;-57
2021/01/18 10:02:14;;;;;;;18.30;7.90;;;-3.60;99.90;;;;;;4189507;28;20476;-59
2021/01/18 10:04:22;;;;;;;20.08;8.70;;;-3.40;99.90;;;;;;4189598;28;20098;-52
2021/01/18 10:06:28;;;;;;;23.83;8.07;;;-3.50;99.90;;;;;;4188021;28;20488;-47
2021/01/18 10:08:30;;;;;;;69.40;27.80;;;-3.50;99.90;;;;;;4188555;28;20037;-56
2021/01/18 10:10:41;;;;;;;33.67;12.57;;;-3.50;99.90;;;;;;4177186;28;20424;-47
2021/01/18 10:12:56;;;;;;;20.48;10.82;;;-3.40;99.90;;;;;;4172692;28;20074;-52
2021/01/18 10:14:59;;;;;;;28.42;12.73;;;-3.30;99.90;;;;;;4170715;28;20903;-51
2021/01/18 10:17:03;;;;;;;27.75;11.63;;;-3.20;99.90;;;;;;4172704;28;20431;-50
2021/01/18 10:19:16;;;;;;;18.30;8.15;;;-3.10;99.90;;;;;;4173019;28;20029;-53
2021/01/18 10:21:17;;;;;;;21.63;8.80;;;-3.10;99.90;;;;;;4174781;28;20909;-56
2021/01/18 10:23:18;;;;;;;17.17;8.68;;;-3.00;99.90;;;;;;4187508;28;20093;-55
2021/01/18 10:25:19;;;;;;;18.20;6.35;;;-3.00;99.90;;;;;;4187988;28;20040;-53
2021/01/18 10:27:28;;;;;;;20.80;7.03;;;-3.10;99.90;;;;;;4185887;28;20475;-58
2021/01/18 10:29:30;;;;;;;25.52;8.27;;;-3.20;99.90;;;;;;4187670;28;20037;-52
2021/01/18 10:31:33;;;;;;;17.25;8.15;;;-3.20;99.90;;;;;;4185370;28;20036;-54
2021/01/18 10:33:34;;;;;;;13.82;5.90;;;-3.20;99.90;;;;;;4188134;28;20048;-62
2021/01/18 10:35:38;;;;;;;22.15;7.72;;;-3.50;99.90;;;;;;4187712;28;20523;-55
2021/01/18 10:37:39;;;;;;;20.52;6.68;;;-3.70;99.90;;;;;;4185458;28;20040;-54
2021/01/18 10:39:42;;;;;;;16.55;7.10;;;-3.90;99.90;;;;;;4187741;28;20121;-49